Time;durP1;ratioP1;P1;durP2;ratioP2;P2;SDS_P1;SDS_P2;PMS_P1;PMS_P2;Temp;Humidity;BMP_temperature;BMP_pressure;BME280_temperature;BME280_humidity;BME280_pressure;Samples;Min_cycle;Max_cycle;Signal;HPM_P1;HPM_P2
2021/01/05 00:00:58;;;;;;;16.27;2.70;;;21.50;28.70;;;;;;5095140;28;20099;-55
2021/01/05 00:03:24;;;;;;;10.60;2.97;;;21.40;28.80;;;;;;5100189;28;20555;-58
2021/01/05 00:05:51;;;;;;;4.80;2.70;;;21.30;29.20;;;;;;5095657;28;20075;-58
2021/01/05 00:08:17;;;;;;;13.13;3.65;;;21.20;29.60;;;;;;5093995;28;20076;-58
2021/01/05 00:10:44;;;;;;;17.23;7.20;;;21.00;30.00;;;;;;5098836;28;20068;-56
2021/01/05 00:13:10;;;;;;;18.65;8.60;;;20.80;30.50;;;;;;5096921;28;20512;-56
2021/01/05 00:15:37;;;;;;;18.17;7.25;;;20.70;31.00;;;;;;5100259;28;20173;-59
2021/01/05 00:18:03;;;;;;;15.05;6.25;;;20.60;31.30;;;;;;5091794;28;20070;-59
2021/01/05 00:20:32;;;;;;;17.13;6.05;;;20.50;32.10;;;;;;5095445;28;20548;-55
2021/01/05 00:22:59;;;;;;;18.13;5.15;;;20.30;32.20;;;;;;5092770;28;20174;-54
2021/01/05 00:25:27;;;;;;;13.60;4.68;;;20.30;32.50;;;;;;5093924;28;20071;-55
2021/01/05 00:27:54;;;;;;;17.02;5.18;;;20.20;32.60;;;;;;5096818;28;20434;-58
2021/01/05 00:30:23;;;;;;;20.00;5.22;;;20.10;32.80;;;;;;5095962;28;20072;-59
2021/01/05 00:32:51;;;;;;;23.60;5.93;;;20.00;33.20;;;;;;5089016;28;20111;-58
2021/01/05 00:35:24;;;;;;;23.88;5.82;;;19.90;33.30;;;;;;5088786;28;20107;-56
2021/01/05 00:37:51;;;;;;;22.92;6.15;;;19.80;33.50;;;;;;5068503;28;20121;-58
2021/01/05 00:40:20;;;;;;;20.50;6.70;;;19.70;33.80;;;;;;5088908;28;20103;-61
2021/01/05 00:42:47;;;;;;;22.95;7.43;;;19.70;34.10;;;;;;5063477;28;20595;-57
2021/01/05 00:45:32;;;;;;;20.63;7.35;;;19.60;34.40;;;;;;5088980;28;20076;-60
2021/01/05 00:48:00;;;;;;;33.35;7.68;;;19.50;34.30;;;;;;5089402;28;20189;-60
2021/01/05 00:50:27;;;;;;;27.52;7.55;;;19.40;34.70;;;;;;5088413;28;20125;-58
2021/01/05 00:52:54;;;;;;;19.17;7.75;;;19.40;34.90;;;;;;5086103;28;21693;-59
2021/01/05 00:55:21;;;;;;;26.58;7.40;;;19.30;35.90;;;;;;5087763;28;20447;-59
2021/01/05 00:57:47;;;;;;;22.15;7.22;;;19.20;36.20;;;;;;5087970;28;20100;-54
2021/01/05 01:00:26;;;;;;;25.25;8.23;;;19.10;35.50;;;;;;5088317;28;20571;-59
2021/01/05 01:02:53;;;;;;;24.73;7.30;;;19.10;35.30;;;;;;5070264;28;20170;-60
2021/01/05 01:05:20;;;;;;;39.45;8.07;;;19.00;35.50;;;;;;5068634;28;21460;-54
2021/01/05 01:07:47;;;;;;;31.55;8.20;;;18.90;36.20;;;;;;5084727;28;20552;-58
2021/01/05 01:10:14;;;;;;;33.25;8.18;;;18.80;37.50;;;;;;5066155;28;20079;-63
2021/01/05 01:12:41;;;;;;;24.65;8.00;;;18.70;38.00;;;;;;5088161;28;20073;-60
2021/01/05 01:15:08;;;;;;;27.40;7.70;;;18.50;37.60;;;;;;5087223;28;20095;-58
2021/01/05 01:17:35;;;;;;;30.83;7.82;;;18.50;37.30;;;;;;5086719;28;20072;-58
2021/01/05 01:20:03;;;;;;;27.75;7.90;;;18.40;37.20;;;;;;5087655;28;20094;-59
2021/01/05 01:22:30;;;;;;;38.13;8.70;;;18.30;37.10;;;;;;5085875;28;20954;-58
2021/01/05 01:24:56;;;;;;;;;;;18.20;37.40;;;;;;5086672;28;20121;-56
2021/01/05 01:27:22;;;;;;;35.38;10.48;;;18.10;37.40;;;;;;5088054;28;19955;-58
2021/01/05 01:29:49;;;;;;;34.70;12.95;;;18.10;37.90;;;;;;5088005;28;20071;-54
2021/01/05 01:32:16;;;;;;;52.53;12.48;;;18.00;38.20;;;;;;5088960;28;20082;-54
2021/01/05 01:34:43;;;;;;;36.92;11.45;;;17.90;38.20;;;;;;5102967;28;20095;-56
2021/01/05 01:37:12;;;;;;;41.80;9.68;;;17.90;38.70;;;;;;5102613;28;20538;-54
2021/01/05 01:39:41;;;;;;;42.38;9.52;;;17.80;38.90;;;;;;5099981;28;20118;-64
2021/01/05 01:42:09;;;;;;;36.72;8.10;;;17.80;39.10;;;;;;5105884;28;20070;-57
2021/01/05 01:44:39;;;;;;;34.42;7.72;;;17.70;39.00;;;;;;5101057;28;20158;-54
2021/01/05 01:47:22;;;;;;;34.10;6.72;;;17.70;39.80;;;;;;5102480;28;20100;-59
2021/01/05 01:50:01;;;;;;;27.23;7.03;;;17.60;40.30;;;;;;5105539;28;20127;-60
2021/01/05 01:53:05;;;;;;;36.60;7.53;;;17.60;39.90;;;;;;5102442;28;20128;-57
2021/01/05 01:56:07;;;;;;;23.90;6.47;;;17.50;39.90;;;;;;5102872;28;20090;-60
2021/01/05 01:58:33;;;;;;;24.77;4.65;;;17.40;39.80;;;;;;5098210;28;20082;-57
2021/01/05 02:01:11;;;;;;;;;;;17.30;39.30;;;;;;5101746;28;20232;-55
2021/01/05 02:03:55;;;;;;;;;;;17.30;39.50;;;;;;5103102;28;20009;-57
2021/01/05 02:06:32;;;;;;;22.55;4.47;;;17.20;39.60;;;;;;5100347;28;19991;-58
2021/01/05 02:09:16;;;;;;;19.02;4.57;;;17.20;39.60;;;;;;5104249;28;20569;-58
2021/01/05 02:11:55;;;;;;;31.67;5.40;;;17.10;39.60;;;;;;5103973;28;20555;-59
2021/01/05 02:15:02;;;;;;;19.25;5.85;;;17.10;40.70;;;;;;5100945;28;20563;-58
2021/01/05 02:17:32;;;;;;;29.40;6.18;;;17.00;40.50;;;;;;5100723;28;20116;-58
2021/01/05 02:20:08;;;;;;;36.30;7.00;;;16.80;40.30;;;;;;5090084;28;20128;-61
2021/01/05 02:22:55;;;;;;;46.08;7.93;;;16.80;40.70;;;;;;5102445;28;20059;-56
2021/01/05 02:25:37;;;;;;;49.35;11.15;;;16.70;41.50;;;;;;5104374;28;20078;-58
2021/01/05 02:28:08;;;;;;;30.17;9.95;;;16.70;42.60;;;;;;5103095;28;20087;-59
2021/01/05 02:30:40;;;;;;;29.17;9.75;;;16.60;42.20;;;;;;5086254;28;20174;-56
2021/01/05 02:33:37;;;;;;;44.10;9.27;;;16.50;41.80;;;;;;5097854;28;20199;-59
2021/01/05 02:36:34;;;;;;;41.65;10.48;;;16.40;42.70;;;;;;5107519;28;20204;-59
2021/01/05 02:39:49;;;;;;;33.97;10.15;;;16.30;43.70;;;;;;5106965;28;20144;-58
2021/01/05 02:42:33;;;;;;;35.33;9.15;;;16.30;43.80;;;;;;5104251;28;20535;-57
2021/01/05 02:45:23;;;;;;;36.75;9.27;;;16.20;44.40;;;;;;5105428;28;20089;-59
2021/01/05 02:48:11;;;;;;;31.33;8.32;;;16.20;44.40;;;;;;5105693;28;20071;-59
2021/01/05 02:51:14;;;;;;;35.97;8.98;;;16.10;44.30;;;;;;5090264;28;20087;-59
2021/01/05 02:54:02;;;;;;;37.67;8.20;;;16.00;44.50;;;;;;5105890;28;20114;-59
2021/01/05 02:56:44;;;;;;;37.95;9.27;;;16.00;44.70;;;;;;5098217;28;20075;-55
2021/01/05 02:59:26;;;;;;;31.73;8.10;;;15.90;45.60;;;;;;5101872;28;20428;-57
2021/01/05 03:02:41;;;;;;;24.52;7.63;;;15.80;45.70;;;;;;5106613;28;20113;-54
2021/01/05 03:05:09;;;;;;;34.13;8.43;;;15.80;45.40;;;;;;5077179;28;20602;-58
2021/01/05 03:07:37;;;;;;;32.03;7.85;;;15.60;45.50;;;;;;5104585;28;20195;-55
2021/01/05 03:10:33;;;;;;;39.92;10.13;;;15.60;45.60;;;;;;5102110;28;20130;-59
2021/01/05 03:13:17;;;;;;;50.50;13.73;;;15.60;46.00;;;;;;5088420;28;20088;-59
2021/01/05 03:15:55;;;;;;;53.42;15.35;;;15.60;46.20;;;;;;5108136;28;20083;-54
2021/01/05 03:18:52;;;;;;;41.95;14.00;;;15.50;46.30;;;;;;5108771;28;20068;-57
2021/01/05 03:21:33;;;;;;;41.47;14.63;;;15.50;47.40;;;;;;5100595;28;20432;-55
2021/01/05 03:24:00;;;;;;;49.58;14.10;;;15.40;47.70;;;;;;5103449;28;20076;-61
2021/01/05 03:26:34;;;;;;;40.90;13.68;;;15.50;47.70;;;;;;5108899;28;20075;-57
2021/01/05 03:29:03;;;;;;;42.13;12.52;;;15.40;47.30;;;;;;5099007;28;20080;-58
2021/01/05 03:31:40;;;;;;;52.65;13.55;;;15.40;47.30;;;;;;5106688;28;20079;-56
2021/01/05 03:34:07;;;;;;;56.33;13.70;;;15.40;47.30;;;;;;5090173;28;20112;-57
2021/01/05 03:36:33;;;;;;;39.40;12.45;;;15.30;47.60;;;;;;5087379;28;20080;-58
2021/01/05 03:39:00;;;;;;;42.45;11.45;;;15.30;48.00;;;;;;5083968;28;20527;-58
2021/01/05 03:41:29;;;;;;;32.72;11.70;;;15.30;48.20;;;;;;5084909;28;20111;-59
2021/01/05 03:43:55;;;;;;;42.75;11.02;;;15.30;48.10;;;;;;5083857;28;20545;-59
2021/01/05 03:46:24;;;;;;;;;;;15.20;48.20;;;;;;5076910;28;20087;-56
2021/01/05 03:48:51;;;;;;;42.40;12.85;;;15.20;48.40;;;;;;5075890;28;19961;-60
2021/01/05 03:51:18;;;;;;;49.67;12.85;;;15.10;48.40;;;;;;5080286;28;20089;-56
2021/01/05 03:53:44;;;;;;;;;;;15.10;48.70;;;;;;5081142;28;20093;-60
2021/01/05 03:56:11;;;;;;;41.75;13.07;;;15.10;49.60;;;;;;5083861;28;20332;-57
2021/01/05 03:58:37;;;;;;;;;;;15.00;49.40;;;;;;5080860;28;20077;-59
2021/01/05 04:01:04;;;;;;;48.67;12.45;;;15.00;49.40;;;;;;5062229;28;20011;-55
2021/01/05 04:03:31;;;;;;;33.65;11.43;;;15.00;49.80;;;;;;5080824;28;20481;-59
2021/01/05 04:05:57;;;;;;;34.97;10.00;;;14.90;49.40;;;;;;5066323;28;20089;-59
2021/01/05 04:08:24;;;;;;;35.67;10.95;;;14.80;49.50;;;;;;5081937;28;20446;-60
2021/01/05 04:10:52;;;;;;;46.03;10.60;;;14.80;50.10;;;;;;5082447;28;20081;-60
2021/01/05 04:13:19;;;;;;;47.80;11.82;;;14.80;50.20;;;;;;5080612;28;20127;-57
2021/01/05 04:15:45;;;;;;;29.73;10.75;;;14.70;50.10;;;;;;5080892;28;20073;-54
2021/01/05 04:18:11;;;;;;;;;;;14.60;50.10;;;;;;5078465;28;20568;-52
2021/01/05 04:20:38;;;;;;;39.97;10.75;;;14.60;50.60;;;;;;5086384;28;20045;-55
2021/01/05 04:23:04;;;;;;;;;;;14.50;50.80;;;;;;5082103;28;20107;-54
2021/01/05 04:25:31;;;;;;;39.03;11.13;;;14.40;50.90;;;;;;5088242;28;19965;-53
2021/01/05 04:27:57;;;;;;;;;;;14.40;51.00;;;;;;5083877;28;20087;-59
2021/01/05 04:30:31;;;;;;;43.00;12.15;;;14.30;50.80;;;;;;5078876;28;20059;-60
2021/01/05 04:33:01;;;;;;;38.83;12.45;;;14.30;50.90;;;;;;5089400;28;20148;-58
2021/01/05 04:35:28;;;;;;;45.70;13.18;;;14.20;50.90;;;;;;5106041;28;20096;-58
2021/01/05 04:37:55;;;;;;;63.47;15.32;;;14.20;51.60;;;;;;5085569;28;20564;-57
2021/01/05 04:40:37;;;;;;;61.50;14.23;;;14.10;51.90;;;;;;5107557;28;20100;-58
2021/01/05 04:43:26;;;;;;;55.67;15.15;;;14.10;51.80;;;;;;5104865;28;20083;-55
2021/01/05 04:46:07;;;;;;;45.65;13.82;;;14.10;52.60;;;;;;5100737;28;20130;-57
2021/01/05 04:48:59;;;;;;;63.15;16.48;;;14.00;52.00;;;;;;5105502;28;20091;-55
2021/01/05 04:51:47;;;;;;;65.32;18.02;;;14.00;51.80;;;;;;5090206;28;20118;-57
2021/01/05 04:54:31;;;;;;;74.00;19.95;;;13.90;52.10;;;;;;5107173;28;20100;-58
2021/01/05 04:57:19;;;;;;;99.82;24.15;;;13.90;52.40;;;;;;5105175;28;20147;-58
2021/01/05 04:59:51;;;;;;;79.07;22.35;;;13.80;52.50;;;;;;5083002;28;20109;-59
2021/01/05 05:02:52;;;;;;;88.97;23.55;;;13.90;52.70;;;;;;5104407;28;20571;-56
2021/01/05 05:05:25;;;;;;;102.03;28.05;;;13.80;52.90;;;;;;5104637;28;20551;-60
2021/01/05 05:08:21;;;;;;;81.82;27.50;;;13.80;52.60;;;;;;5106306;28;20461;-58
2021/01/05 05:11:03;;;;;;;108.05;28.88;;;13.70;52.40;;;;;;5104364;28;20206;-56
2021/01/05 05:13:36;;;;;;;94.40;29.85;;;13.70;52.40;;;;;;5104763;28;20100;-59
2021/01/05 05:16:37;;;;;;;114.13;34.42;;;13.70;52.50;;;;;;5103071;28;20474;-58
2021/01/05 05:19:35;;;;;;;116.10;34.17;;;13.60;52.60;;;;;;5113636;27;20613;-58
2021/01/05 05:22:13;;;;;;;;;;;13.60;52.60;;;;;;5105728;28;20218;-56
2021/01/05 05:25:06;;;;;;;122.57;37.25;;;13.60;52.60;;;;;;5107232;28;19956;-59
2021/01/05 05:28:01;;;;;;;106.22;33.78;;;13.60;52.90;;;;;;5105958;28;20072;-57
2021/01/05 05:30:31;;;;;;;130.73;37.15;;;13.60;52.80;;;;;;5105548;28;20513;-58
2021/01/05 05:33:00;;;;;;;107.65;34.45;;;13.60;53.20;;;;;;5106652;28;20120;-59
2021/01/05 05:35:44;;;;;;;124.85;37.28;;;13.50;52.90;;;;;;5108045;28;20096;-57
2021/01/05 05:38:35;;;;;;;132.65;38.88;;;13.50;53.40;;;;;;5108534;28;20084;-58
2021/01/05 05:41:23;;;;;;;125.22;37.63;;;13.50;53.60;;;;;;5101728;28;20484;-57
2021/01/05 05:44:14;;;;;;;110.00;33.42;;;13.50;53.40;;;;;;5105957;28;20086;-60
2021/01/05 05:46:51;;;;;;;136.68;36.22;;;13.40;53.50;;;;;;5097235;28;20069;-60
2021/01/05 05:49:42;;;;;;;116.20;35.60;;;13.40;53.70;;;;;;5106301;28;20560;-60
2021/01/05 05:52:41;;;;;;;128.05;35.03;;;13.40;53.90;;;;;;5103111;28;20078;-57
2021/01/05 05:55:25;;;;;;;120.15;35.92;;;13.30;53.90;;;;;;5060337;28;20105;-58
2021/01/05 05:57:57;;;;;;;136.23;35.95;;;13.20;54.80;;;;;;5103472;28;20072;-58
2021/01/05 06:00:37;;;;;;;118.85;34.97;;;13.20;54.50;;;;;;5087743;28;20072;-54
2021/01/05 06:03:06;;;;;;;120.15;33.38;;;13.20;53.80;;;;;;5104639;28;20128;-59
2021/01/05 06:05:35;;;;;;;131.35;35.08;;;13.20;54.40;;;;;;5101343;28;20084;-58
2021/01/05 06:08:04;;;;;;;117.70;32.92;;;13.10;54.50;;;;;;5108566;28;20078;-55
2021/01/05 06:10:31;;;;;;;140.82;33.25;;;13.10;54.70;;;;;;5104697;28;20082;-60
2021/01/05 06:12:58;;;;;;;128.85;31.88;;;12.90;54.80;;;;;;5100598;28;20080;-58
2021/01/05 06:15:25;;;;;;;118.90;30.15;;;13.00;71.70;;;;;;5105840;28;20058;-62
2021/01/05 06:17:52;;;;;;;178.32;34.25;;;13.00;71.40;;;;;;5105744;28;20154;-61
2021/01/05 06:20:19;;;;;;;102.43;28.02;;;12.80;67.40;;;;;;5088723;28;20151;-60
2021/01/05 06:22:46;;;;;;;119.13;30.90;;;12.90;55.00;;;;;;5107771;28;20187;-63
2021/01/05 06:25:14;;;;;;;102.93;30.42;;;12.90;55.60;;;;;;5097333;28;20535;-57
2021/01/05 06:27:41;;;;;;;113.25;32.55;;;12.90;55.20;;;;;;5104457;28;20091;-57
2021/01/05 06:30:08;;;;;;;128.77;31.35;;;12.80;54.80;;;;;;5104213;28;20122;-57
2021/01/05 06:32:35;;;;;;;110.22;31.23;;;12.80;55.60;;;;;;5105408;28;20472;-59
2021/01/05 06:35:03;;;;;;;95.15;29.38;;;12.70;55.60;;;;;;5086934;28;20100;-61
2021/01/05 06:37:29;;;;;;;117.18;32.08;;;12.70;55.50;;;;;;5111360;28;20072;-58
2021/01/05 06:39:56;;;;;;;110.90;31.23;;;12.70;55.50;;;;;;5110768;28;20459;-59
2021/01/05 06:42:23;;;;;;;120.55;31.40;;;12.60;55.60;;;;;;5109906;28;20083;-57
2021/01/05 06:44:49;;;;;;;114.68;30.63;;;12.60;56.30;;;;;;5107862;28;20155;-56
2021/01/05 06:47:18;;;;;;;98.97;31.02;;;12.60;56.70;;;;;;5100219;28;20206;-55
2021/01/05 06:49:44;;;;;;;95.28;31.52;;;12.60;56.50;;;;;;5100853;28;20175;-59
2021/01/05 06:52:11;;;;;;;;;;;12.50;56.80;;;;;;5104146;28;20662;-59
2021/01/05 06:54:37;;;;;;;120.68;30.38;;;12.50;56.40;;;;;;5102626;28;20375;-58
2021/01/05 06:57:05;;;;;;;;;;;12.50;56.40;;;;;;5107179;28;20094;-59
2021/01/05 06:59:31;;;;;;;93.15;28.98;;;12.40;56.10;;;;;;5103490;28;19962;-58
2021/01/05 07:02:01;;;;;;;93.15;29.13;;;12.40;56.30;;;;;;5106043;28;20545;-60
2021/01/05 07:04:28;;;;;;;108.30;31.65;;;12.30;56.40;;;;;;5107261;28;20086;-59
2021/01/05 07:06:55;;;;;;;114.80;31.40;;;12.30;56.60;;;;;;5101829;28;20209;-58
2021/01/05 07:09:23;;;;;;;115.28;31.88;;;12.30;57.30;;;;;;5108727;28;20401;-59
2021/01/05 07:11:50;;;;;;;105.07;31.95;;;12.30;57.50;;;;;;5093079;28;20076;-60
2021/01/05 07:14:19;;;;;;;96.78;31.02;;;12.30;57.00;;;;;;5088981;28;20095;-60
2021/01/05 07:16:46;;;;;;;113.38;32.35;;;12.30;56.80;;;;;;5107523;28;20073;-59
2021/01/05 07:19:16;;;;;;;108.00;33.05;;;12.30;56.80;;;;;;5106206;28;20102;-57
2021/01/05 07:21:43;;;;;;;106.18;31.05;;;12.20;56.80;;;;;;5107157;27;20073;-58
2021/01/05 07:24:10;;;;;;;132.90;35.47;;;12.20;56.70;;;;;;5104170;28;20077;-58
2021/01/05 07:26:40;;;;;;;115.18;35.10;;;12.20;57.00;;;;;;5106373;28;20072;-55
2021/01/05 07:29:07;;;;;;;106.72;35.33;;;12.20;57.30;;;;;;5105301;28;20701;-57
2021/01/05 07:31:34;;;;;;;124.00;37.35;;;12.20;57.20;;;;;;5106937;28;20084;-59
2021/01/05 07:34:00;;;;;;;;;;;12.10;57.00;;;;;;5104087;28;20476;-60
2021/01/05 07:36:32;;;;;;;121.45;35.22;;;12.10;57.10;;;;;;5104454;28;20400;-61
2021/01/05 07:38:58;;;;;;;109.72;34.28;;;12.10;57.30;;;;;;5085575;28;20133;-57
2021/01/05 07:41:24;;;;;;;;;;;12.10;58.10;;;;;;5106782;28;20080;-58
2021/01/05 07:43:51;;;;;;;114.03;34.92;;;12.00;58.00;;;;;;5106068;28;19956;-59
2021/01/05 07:46:17;;;;;;;;;;;12.00;58.10;;;;;;5103213;28;20440;-57
2021/01/05 07:48:44;;;;;;;122.70;37.60;;;12.00;58.20;;;;;;5107599;28;19999;-59
2021/01/05 07:51:11;;;;;;;104.82;36.05;;;12.00;57.80;;;;;;5105968;28;20103;-59
2021/01/05 07:53:38;;;;;;;99.68;35.35;;;12.10;57.90;;;;;;5107676;28;20088;-58
2021/01/05 07:56:05;;;;;;;103.90;37.58;;;12.00;57.90;;;;;;5078622;28;20068;-58
2021/01/05 07:58:31;;;;;;;128.77;38.38;;;11.90;57.80;;;;;;5096728;28;20122;-57
2021/01/05 08:00:57;;;;;;;;;;;12.00;57.90;;;;;;5085178;28;20080;-58
2021/01/05 08:03:24;;;;;;;117.75;38.08;;;11.90;57.90;;;;;;5101111;28;19999;-57
2021/01/05 08:05:51;;;;;;;117.97;36.22;;;11.90;58.00;;;;;;5109682;28;20116;-59
2021/01/05 08:08:18;;;;;;;117.50;37.08;;;11.90;57.70;;;;;;5106385;28;20087;-58
2021/01/05 08:10:44;;;;;;;;;;;11.80;57.70;;;;;;5082792;28;20160;-59
2021/01/05 08:13:12;;;;;;;121.60;38.17;;;11.80;57.90;;;;;;5102664;28;19957;-57
2021/01/05 08:15:39;;;;;;;94.65;36.85;;;11.80;57.90;;;;;;5099447;28;20089;-56
2021/01/05 08:18:10;;;;;;;122.18;37.13;;;11.80;57.60;;;;;;5108737;28;20073;-55
2021/01/05 08:20:36;;;;;;;97.25;34.10;;;11.80;57.80;;;;;;5107250;28;20076;-59
2021/01/05 08:23:03;;;;;;;;;;;11.80;57.80;;;;;;5104722;28;20070;-58
2021/01/05 08:25:31;;;;;;;95.40;33.83;;;11.90;57.90;;;;;;5107698;28;19963;-56
2021/01/05 08:27:58;;;;;;;101.03;31.00;;;11.80;58.00;;;;;;5080817;28;20441;-58
2021/01/05 08:30:28;;;;;;;85.05;29.15;;;11.80;58.10;;;;;;5102903;28;20076;-59
2021/01/05 08:33:00;;;;;;;91.50;30.15;;;11.70;58.30;;;;;;5101910;28;20112;-58
2021/01/05 08:35:26;;;;;;;90.80;29.88;;;11.70;58.20;;;;;;5097441;28;20092;-59
2021/01/05 08:37:53;;;;;;;81.40;29.17;;;11.70;58.80;;;;;;5092281;28;20073;-57
2021/01/05 08:40:26;;;;;;;104.63;29.30;;;11.70;58.90;;;;;;5105691;28;20088;-59
2021/01/05 08:42:54;;;;;;;90.93;29.10;;;11.60;59.20;;;;;;5109797;28;20080;-58
2021/01/05 08:45:20;;;;;;;94.57;28.42;;;11.60;59.20;;;;;;5095036;28;20125;-57
2021/01/05 08:47:47;;;;;;;;;;;11.70;58.90;;;;;;5103445;28;20166;-58
2021/01/05 08:50:29;;;;;;;88.45;28.52;;;11.60;59.20;;;;;;5106772;27;19968;-58
2021/01/05 08:52:57;;;;;;;97.57;28.60;;;11.60;59.20;;;;;;5104136;28;20075;-58
2021/01/05 08:55:24;;;;;;;87.30;28.88;;;11.60;59.00;;;;;;5095434;28;20199;-59
2021/01/05 08:57:50;;;;;;;;;;;11.50;59.30;;;;;;5094508;28;20077;-58
2021/01/05 09:00:17;;;;;;;90.43;27.65;;;11.50;59.50;;;;;;5094257;28;20042;-56
2021/01/05 09:02:44;;;;;;;101.80;29.05;;;11.50;59.50;;;;;;5103442;28;20095;-58
2021/01/05 09:05:10;;;;;;;;;;;11.40;59.50;;;;;;5106558;28;20064;-56
2021/01/05 09:07:37;;;;;;;97.95;27.25;;;11.40;59.70;;;;;;5099413;28;20033;-59
2021/01/05 09:10:09;;;;;;;86.03;28.80;;;11.40;60.10;;;;;;5102389;28;20072;-58
2021/01/05 09:12:36;;;;;;;86.93;27.88;;;11.40;60.30;;;;;;5094238;28;20098;-58
2021/01/05 09:15:04;;;;;;;85.10;29.40;;;11.40;60.30;;;;;;5108433;28;20180;-57
2021/01/05 09:17:31;;;;;;;83.72;27.90;;;11.30;60.70;;;;;;5105560;28;20073;-58
2021/01/05 09:19:57;;;;;;;78.93;26.83;;;11.30;60.70;;;;;;5107096;28;20099;-58
2021/01/05 09:22:24;;;;;;;;;;;11.30;60.40;;;;;;5106659;28;20102;-58
2021/01/05 09:24:51;;;;;;;82.00;26.52;;;11.20;60.40;;;;;;5086550;28;19963;-58
2021/01/05 09:27:18;;;;;;;84.80;27.58;;;11.20;60.90;;;;;;5097096;28;20118;-59
2021/01/05 09:29:45;;;;;;;78.43;28.65;;;11.20;61.20;;;;;;5100245;28;20071;-59
2021/01/05 09:32:12;;;;;;;85.45;29.45;;;11.20;61.40;;;;;;5099365;28;20076;-58
2021/01/05 09:34:38;;;;;;;;;;;11.10;61.10;;;;;;5102883;28;20092;-56
2021/01/05 09:37:06;;;;;;;80.75;30.83;;;11.10;60.90;;;;;;5103599;28;20694;-58
2021/01/05 09:39:33;;;;;;;98.35;29.48;;;11.10;60.80;;;;;;5082676;28;20076;-54
2021/01/05 09:42:00;;;;;;;;;;;11.10;61.10;;;;;;5107090;28;20265;-58
2021/01/05 09:44:27;;;;;;;95.07;31.02;;;11.00;61.70;;;;;;5096640;28;19964;-58
2021/01/05 09:46:59;;;;;;;93.70;30.90;;;11.00;61.80;;;;;;5101251;28;20448;-59
2021/01/05 09:49:28;;;;;;;91.05;31.60;;;10.90;62.10;;;;;;5094030;28;20096;-58
2021/01/05 09:51:59;;;;;;;95.00;31.33;;;10.90;63.10;;;;;;5078801;28;20080;-57
2021/01/05 09:54:27;;;;;;;105.20;32.78;;;10.90;62.50;;;;;;5102168;28;20569;-57
2021/01/05 09:56:56;;;;;;;111.75;33.67;;;10.80;62.40;;;;;;5098444;28;20559;-54
2021/01/05 09:59:28;;;;;;;98.32;34.10;;;10.90;62.30;;;;;;5099041;28;20398;-59
2021/01/05 10:01:55;;;;;;;105.75;35.25;;;10.80;62.00;;;;;;5103578;28;20410;-58
2021/01/05 10:04:22;;;;;;;115.68;36.55;;;10.90;61.90;;;;;;5104219;28;20086;-57
2021/01/05 10:06:49;;;;;;;114.43;35.85;;;10.90;62.10;;;;;;5105742;28;20078;-60
2021/01/05 10:09:15;;;;;;;;;;;10.80;62.60;;;;;;5089929;27;21491;-59
2021/01/05 10:11:45;;;;;;;111.00;37.72;;;10.80;63.10;;;;;;5101570;28;19979;-56
2021/01/05 10:14:14;;;;;;;121.47;39.05;;;10.80;63.10;;;;;;5104922;28;20096;-58
2021/01/05 10:16:42;;;;;;;126.22;41.20;;;10.70;62.90;;;;;;5103303;28;20068;-58
2021/01/05 10:19:12;;;;;;;132.88;42.35;;;10.70;63.10;;;;;;5101019;28;20547;-59
2021/01/05 10:21:41;;;;;;;126.53;44.47;;;10.70;63.30;;;;;;5106596;28;20101;-58
2021/01/05 10:24:10;;;;;;;134.57;45.92;;;10.60;63.60;;;;;;5106130;28;20559;-56
2021/01/05 10:26:36;;;;;;;138.45;46.20;;;10.60;62.80;;;;;;5107103;28;20072;-58
2021/01/05 10:29:03;;;;;;;;;;;10.60;62.70;;;;;;5105846;28;20076;-59
2021/01/05 10:31:42;;;;;;;138.23;45.83;;;10.60;63.10;;;;;;5105847;28;19962;-58
2021/01/05 10:34:10;;;;;;;139.85;46.42;;;10.60;63.00;;;;;;5095033;28;20468;-58
2021/01/05 10:36:37;;;;;;;139.35;47.25;;;10.50;63.00;;;;;;5096854;28;20083;-58
2021/01/05 10:39:06;;;;;;;136.60;49.25;;;10.50;62.50;;;;;;5093396;28;20421;-57
2021/01/05 10:41:41;;;;;;;144.35;49.70;;;10.50;62.60;;;;;;5095597;28;20690;-57
2021/01/05 10:44:09;;;;;;;149.77;52.72;;;10.50;62.70;;;;;;5086997;28;20139;-57
2021/01/05 10:46:36;;;;;;;150.35;53.78;;;10.40;62.50;;;;;;5096335;28;20106;-54
2021/01/05 10:49:03;;;;;;;154.27;55.30;;;10.40;63.10;;;;;;5095841;28;20074;-58
2021/01/05 10:51:30;;;;;;;148.85;52.72;;;10.40;62.50;;;;;;5097578;28;20076;-56
2021/01/05 10:53:56;;;;;;;;;;;10.40;62.50;;;;;;5096849;28;20103;-58
2021/01/05 10:56:23;;;;;;;144.52;52.40;;;10.30;62.20;;;;;;5100453;28;20010;-57
2021/01/05 10:58:50;;;;;;;138.07;52.83;;;10.30;63.20;;;;;;5093914;28;20068;-55
2021/01/05 11:01:16;;;;;;;;;;;10.30;63.60;;;;;;5078060;28;20076;-55
2021/01/05 11:03:43;;;;;;;158.38;53.67;;;10.30;63.10;;;;;;5096876;28;19953;-59
2021/01/05 11:06:09;;;;;;;170.48;56.35;;;10.30;62.80;;;;;;5096669;28;20077;-57
2021/01/05 11:08:36;;;;;;;140.95;52.95;;;10.20;63.20;;;;;;5076166;28;20077;-59
2021/01/05 11:11:04;;;;;;;;;;;10.20;63.20;;;;;;5094420;28;20083;-57
2021/01/05 11:13:31;;;;;;;122.07;50.83;;;10.30;62.10;;;;;;5092391;28;20067;-57
2021/01/05 11:15:58;;;;;;;150.15;52.80;;;10.20;62.40;;;;;;5073983;28;20422;-60
2021/01/05 11:18:24;;;;;;;;;;;10.10;62.20;;;;;;5094806;28;20073;-55
2021/01/05 11:20:51;;;;;;;145.27;51.70;;;10.20;62.30;;;;;;5095032;28;19961;-58
2021/01/05 11:23:17;;;;;;;;;;;10.20;62.10;;;;;;5096772;28;20149;-58
2021/01/05 11:25:44;;;;;;;138.07;52.63;;;10.10;62.20;;;;;;5098495;28;19960;-57
2021/01/05 11:28:11;;;;;;;146.10;52.33;;;10.10;62.50;;;;;;5092855;28;20077;-58
2021/01/05 11:30:38;;;;;;;139.18;50.95;;;10.10;62.40;;;;;;5098819;28;20076;-57
2021/01/05 11:33:06;;;;;;;137.50;53.28;;;10.00;62.30;;;;;;5095671;28;20120;-58
2021/01/05 11:35:33;;;;;;;157.38;52.63;;;10.00;62.80;;;;;;5096679;28;20103;-54
2021/01/05 11:37:59;;;;;;;152.60;52.08;;;9.90;63.10;;;;;;5103431;28;20503;-58
2021/01/05 11:40:25;;;;;;;;;;;9.90;63.40;;;;;;5109652;28;20491;-53
2021/01/05 11:42:54;;;;;;;140.18;52.42;;;9.90;63.50;;;;;;5109567;28;19956;-55
2021/01/05 11:45:21;;;;;;;156.60;51.03;;;9.90;63.50;;;;;;5102861;28;20112;-57
2021/01/05 11:47:47;;;;;;;138.38;51.05;;;9.90;64.30;;;;;;5106094;28;20072;-54
2021/01/05 11:50:14;;;;;;;;;;;9.90;64.60;;;;;;5078200;28;20459;-58
2021/01/05 11:52:40;;;;;;;142.63;51.78;;;9.90;64.30;;;;;;5102493;28;20320;-57
2021/01/05 11:55:07;;;;;;;;;;;9.90;64.10;;;;;;5105967;28;20119;-58
2021/01/05 11:57:34;;;;;;;146.60;53.60;;;10.00;63.60;;;;;;5104555;28;20010;-58
2021/01/05 12:00:02;;;;;;;156.30;58.83;;;10.00;63.30;;;;;;5092114;28;20076;-59
2021/01/05 12:02:29;;;;;;;148.63;59.70;;;10.00;63.60;;;;;;5107554;28;20092;-59
2021/01/05 12:04:55;;;;;;;153.95;57.33;;;9.90;64.20;;;;;;5110135;28;20076;-58
2021/01/05 12:07:24;;;;;;;;;;;9.90;63.90;;;;;;5111656;27;20130;-56
2021/01/05 12:09:54;;;;;;;152.30;61.13;;;9.90;64.00;;;;;;5107558;27;21300;-58
2021/01/05 12:12:21;;;;;;;148.02;59.13;;;9.90;63.70;;;;;;5109577;28;20076;-61
2021/01/05 12:14:48;;;;;;;149.90;60.83;;;9.90;63.80;;;;;;5107956;28;20100;-54
2021/01/05 12:17:15;;;;;;;157.45;58.63;;;9.90;64.40;;;;;;5107060;28;20080;-55
2021/01/05 12:19:43;;;;;;;;;;;9.90;64.50;;;;;;5110018;28;20101;-55
2021/01/05 12:22:10;;;;;;;152.55;61.17;;;9.90;64.30;;;;;;5108909;28;19964;-57
2021/01/05 12:24:38;;;;;;;158.40;58.33;;;9.80;64.30;;;;;;5108791;27;20516;-56
2021/01/05 12:27:07;;;;;;;149.00;57.92;;;9.80;64.60;;;;;;5111266;27;20087;-54
2021/01/05 12:29:37;;;;;;;162.05;60.17;;;9.80;64.60;;;;;;5099791;28;20068;-57
2021/01/05 12:32:12;;;;;;;171.13;62.10;;;9.80;64.40;;;;;;5103941;28;20086;-57
2021/01/05 12:34:43;;;;;;;161.20;59.97;;;9.80;64.80;;;;;;5105591;28;20123;-57
2021/01/05 12:37:12;;;;;;;157.00;59.67;;;9.80;65.30;;;;;;5102399;28;20529;-57
2021/01/05 12:39:39;;;;;;;158.60;57.40;;;9.70;65.30;;;;;;5105624;28;20076;-59
2021/01/05 12:42:13;;;;;;;154.90;57.38;;;9.70;65.20;;;;;;5105130;28;20075;-54
2021/01/05 12:44:40;;;;;;;150.60;58.65;;;9.70;64.90;;;;;;5098218;28;20103;-53
2021/01/05 12:47:07;;;;;;;158.13;58.65;;;9.70;65.00;;;;;;5109021;28;20444;-54
2021/01/05 12:49:34;;;;;;;143.85;55.60;;;9.70;65.50;;;;;;5105521;28;20159;-55
2021/01/05 12:52:10;;;;;;;140.57;57.50;;;9.70;65.50;;;;;;5106023;27;20424;-57
2021/01/05 12:54:39;;;;;;;145.82;57.42;;;9.60;65.30;;;;;;5095467;28;20103;-55
2021/01/05 12:57:08;;;;;;;144.23;55.95;;;9.60;65.50;;;;;;5100591;27;20524;-53
2021/01/05 12:59:35;;;;;;;127.68;55.25;;;9.60;65.30;;;;;;5108101;27;20171;-54